Time;durP1;ratioP1;P1;durP2;ratioP2;P2;SDS_P1;SDS_P2;PMS_P1;PMS_P2;Temp;Humidity;BMP_temperature;BMP_pressure;BME280_temperature;BME280_humidity;BME280_pressure;Samples;Min_cycle;Max_cycle;Signal;HPM_P1;HPM_P2
2022/12/14 00:02:20;;;;;;;10.53;5.50;;;;;;;;;;5007389;28;20179;-83
2022/12/14 00:04:45;;;;;;;13.27;8.00;;;;;;;;;;5007242;28;20515;-84
2022/12/14 00:07:11;;;;;;;8.40;4.77;;;-2.10;99.90;;;;;;5007447;28;20441;-82
2022/12/14 00:09:36;;;;;;;13.40;7.67;;;-2.00;99.90;;;;;;5017127;28;20470;-84
2022/12/14 00:12:02;;;;;;;11.50;5.83;;;-1.90;99.90;;;;;;5007286;28;20684;-82
2022/12/14 00:14:28;;;;;;;15.07;5.87;;;-1.90;99.90;;;;;;5024071;28;20250;-82
2022/12/14 00:16:53;;;;;;;9.80;5.10;;;-1.90;99.90;;;;;;5028779;23;20229;-83
2022/12/14 00:19:19;;;;;;;16.30;6.60;;;-1.90;99.90;;;;;;5030757;28;20579;-82
2022/12/14 00:21:45;;;;;;;11.80;6.40;;;;;;;;;;5001942;28;20187;-83
2022/12/14 00:24:11;;;;;;;18.03;6.47;;;;;;;;;;5020240;28;20441;-83
2022/12/14 00:26:37;;;;;;;8.67;5.83;;;;;;;;;;5008707;28;20457;-84
2022/12/14 00:29:03;;;;;;;11.60;6.50;;;;;;;;;;5021148;28;20434;-83
2022/12/14 00:31:31;;;;;;;11.35;6.35;;;-1.90;99.90;;;;;;5022380;28;20471;-84
2022/12/14 00:33:57;;;;;;;14.55;7.95;;;-1.80;99.90;;;;;;5022689;28;20175;-83
2022/12/14 00:36:23;;;;;;;11.63;6.40;;;-1.90;99.90;;;;;;5024246;28;20270;-84
2022/12/14 00:38:48;;;;;;;11.40;6.60;;;-1.90;99.90;;;;;;5032538;28;20413;-82
2022/12/14 00:41:14;;;;;;;10.90;6.50;;;-1.90;99.90;;;;;;5031419;28;20437;-84
2022/12/14 00:43:40;;;;;;;9.20;5.33;;;-1.90;99.90;;;;;;5022170;28;20177;-83
2022/12/14 00:46:06;;;;;;;11.75;5.32;;;-1.90;99.90;;;;;;5023315;28;20240;-83
2022/12/14 00:48:31;;;;;;;9.07;4.73;;;-1.90;99.90;;;;;;5023770;28;20257;-82
2022/12/14 00:50:57;;;;;;;15.17;7.27;;;-1.90;99.90;;;;;;5023581;28;20202;-85
2022/12/14 00:53:24;;;;;;;11.60;6.80;;;-1.80;99.90;;;;;;5020363;28;20432;-82
2022/12/14 00:55:50;;;;;;;10.95;6.75;;;-1.80;99.90;;;;;;5026827;28;20445;-85
2022/12/14 00:58:18;;;;;;;10.67;5.53;;;-1.70;99.90;;;;;;5019935;28;20159;-82
2022/12/14 01:00:44;;;;;;;12.80;6.18;;;-1.70;99.90;;;;;;5021312;28;20440;-83
2022/12/14 01:03:10;;;;;;;10.75;6.28;;;-1.70;99.90;;;;;;5021994;28;20173;-84
2022/12/14 01:05:36;;;;;;;16.88;7.43;;;-1.70;99.90;;;;;;5017018;28;20182;-84
2022/12/14 01:08:02;;;;;;;15.05;7.68;;;-1.70;99.90;;;;;;5017087;28;20309;-82
2022/12/14 01:10:28;;;;;;;9.73;6.20;;;-1.60;99.90;;;;;;5020185;28;20210;-84
2022/12/14 01:12:53;;;;;;;14.13;6.97;;;-1.60;99.90;;;;;;5018709;28;20189;-84
2022/12/14 01:15:19;;;;;;;14.60;6.17;;;-1.50;99.90;;;;;;5018685;28;20190;-84
2022/12/14 01:17:45;;;;;;;10.13;5.20;;;-1.50;99.90;;;;;;5012660;28;20214;-82
2022/12/14 01:20:11;;;;;;;15.20;6.90;;;-1.50;99.90;;;;;;5012853;28;20190;-82
2022/12/14 01:22:37;;;;;;;7.23;4.50;;;-1.60;99.90;;;;;;5012298;28;20203;-82
2022/12/14 01:25:03;;;;;;;9.85;4.93;;;-1.60;99.90;;;;;;5008417;28;20454;-82
2022/12/14 01:27:29;;;;;;;13.98;6.38;;;-1.60;99.90;;;;;;5008551;28;20206;-82
2022/12/14 01:29:55;;;;;;;10.63;6.20;;;;;;;;;;5015325;28;20252;-82
2022/12/14 01:32:20;;;;;;;16.00;6.33;;;-1.50;99.90;;;;;;5019523;28;20187;-82
2022/12/14 01:34:50;;;;;;;12.80;6.20;;;-1.50;99.90;;;;;;5014496;28;20429;-85
2022/12/14 01:37:15;;;;;;;12.57;6.57;;;-1.50;99.90;;;;;;5015741;28;20198;-83
2022/12/14 01:39:41;;;;;;;15.87;7.17;;;-1.50;99.90;;;;;;5007839;28;20182;-83
2022/12/14 01:42:14;;;;;;;8.90;5.80;;;-1.50;99.90;;;;;;5004020;28;20688;-83
2022/12/14 01:44:39;;;;;;;14.20;6.88;;;-1.50;99.90;;;;;;5025030;28;20668;-84
2022/12/14 01:47:15;;;;;;;12.13;6.20;;;-1.50;99.90;;;;;;5021082;28;20203;-84
2022/12/14 01:49:56;;;;;;;13.18;6.60;;;-1.50;99.90;;;;;;5018865;28;20170;-84
2022/12/14 01:52:32;;;;;;;11.88;6.80;;;-1.50;99.90;;;;;;5022688;28;20186;-84
2022/12/14 01:55:12;;;;;;;11.32;5.50;;;-1.50;99.90;;;;;;5023286;28;20166;-83
2022/12/14 01:57:45;;;;;;;8.10;5.18;;;-1.50;99.90;;;;;;5013100;28;20205;-84
2022/12/14 02:00:15;;;;;;;13.25;6.25;;;-1.50;99.90;;;;;;5030958;28;20264;-84
2022/12/14 02:02:47;;;;;;;10.55;4.55;;;-1.50;99.90;;;;;;5018700;28;20906;-84
2022/12/14 02:05:14;;;;;;;9.23;6.25;;;-1.50;99.90;;;;;;5013157;28;20166;-83
2022/12/14 02:07:42;;;;;;;13.95;6.80;;;-1.60;99.90;;;;;;5015561;28;20201;-82
2022/12/14 02:10:09;;;;;;;9.75;5.57;;;-1.60;99.90;;;;;;5026042;28;20198;-81
2022/12/14 02:12:40;;;;;;;12.35;7.65;;;-1.50;99.90;;;;;;5019423;28;20179;-84
2022/12/14 02:15:06;;;;;;;9.70;5.05;;;-1.60;99.90;;;;;;5023877;28;20197;-82
2022/12/14 02:17:32;;;;;;;13.87;5.90;;;-1.60;99.90;;;;;;5019768;28;20213;-82
2022/12/14 02:19:58;;;;;;;13.63;6.77;;;-1.60;99.90;;;;;;5018334;28;20814;-83
2022/12/14 02:22:55;;;;;;;9.93;6.60;;;-1.60;99.90;;;;;;5023896;28;20186;-82
2022/12/14 02:25:39;;;;;;;13.32;6.72;;;-1.60;99.90;;;;;;4997376;28;20843;-82
2022/12/14 02:28:43;;;;;;;8.13;4.70;;;-1.60;99.90;;;;;;5014207;28;20467;-83
2022/12/14 02:31:14;;;;;;;4.72;2.78;;;-1.60;99.90;;;;;;4992217;28;20260;-85
2022/12/14 02:33:46;;;;;;;9.18;5.53;;;-1.70;99.90;;;;;;5017887;28;20285;-83
2022/12/14 02:36:27;;;;;;;7.97;4.82;;;-1.80;99.90;;;;;;5001540;28;20234;-84
2022/12/14 02:39:22;;;;;;;9.73;5.35;;;-1.80;99.90;;;;;;5009021;28;20189;-85
2022/12/14 02:42:04;;;;;;;12.68;6.30;;;-1.70;99.90;;;;;;5003684;28;20245;-82
2022/12/14 02:45:13;;;;;;;9.30;6.63;;;-1.70;99.90;;;;;;5009840;28;20170;-81
2022/12/14 02:48:11;;;;;;;20.52;7.35;;;-1.70;99.90;;;;;;4951626;28;20215;-82
2022/12/14 02:50:50;;;;;;;8.38;4.47;;;-1.60;99.90;;;;;;5013125;28;20197;-84
2022/12/14 02:53:31;;;;;;;13.48;6.82;;;-1.60;99.90;;;;;;5009547;28;20197;-84
2022/12/14 02:56:02;;;;;;;8.82;5.45;;;-1.70;99.90;;;;;;5014596;28;20252;-83
2022/12/14 02:58:35;;;;;;;11.13;6.25;;;-1.70;99.90;;;;;;5013792;28;20174;-83
2022/12/14 03:01:01;;;;;;;15.25;6.95;;;-1.70;99.90;;;;;;5014062;28;20182;-84
2022/12/14 03:03:27;;;;;;;14.65;8.30;;;-1.70;99.90;;;;;;5015227;28;20649;-83
2022/12/14 03:06:02;;;;;;;10.10;6.10;;;-1.70;99.90;;;;;;5012457;28;20282;-83
2022/12/14 03:08:33;;;;;;;12.85;6.25;;;-1.60;99.90;;;;;;5012703;28;20174;-84
2022/12/14 03:11:04;;;;;;;15.48;7.57;;;-1.60;99.90;;;;;;5006225;28;20205;-83
2022/12/14 03:13:54;;;;;;;20.23;7.72;;;-1.60;99.90;;;;;;5014369;28;20185;-84
2022/12/14 03:16:41;;;;;;;9.82;6.70;;;-1.50;99.90;;;;;;5017121;28;20604;-83
2022/12/14 03:19:16;;;;;;;10.95;6.18;;;-1.50;99.90;;;;;;5015428;28;20195;-83
2022/12/14 03:21:57;;;;;;;21.60;8.90;;;-1.60;99.90;;;;;;5012606;28;20174;-84
2022/12/14 03:24:29;;;;;;;11.10;6.97;;;-1.50;99.90;;;;;;5012882;28;20338;-84
2022/12/14 03:27:01;;;;;;;10.77;7.05;;;-1.60;99.90;;;;;;5008126;28;20202;-83
2022/12/14 03:29:31;;;;;;;16.23;8.43;;;-1.50;99.90;;;;;;5015342;28;20175;-83
2022/12/14 03:32:09;;;;;;;11.93;7.05;;;-1.50;99.90;;;;;;5015468;28;20179;-85
2022/12/14 03:34:40;;;;;;;18.48;9.45;;;-1.50;99.90;;;;;;5036830;28;20241;-84
2022/12/14 03:37:29;;;;;;;12.35;6.70;;;-1.50;99.90;;;;;;5014243;28;20205;-83
2022/12/14 03:39:55;;;;;;;21.27;7.50;;;-1.50;99.90;;;;;;5013883;28;20170;-83
2022/12/14 03:42:25;;;;;;;14.17;7.93;;;-1.50;99.90;;;;;;5027420;28;20162;-83
2022/12/14 03:44:58;;;;;;;18.48;8.82;;;-1.50;99.90;;;;;;5015135;28;20459;-83
2022/12/14 03:47:39;;;;;;;9.23;5.60;;;-1.50;99.90;;;;;;5012913;28;20203;-82
2022/12/14 03:50:17;;;;;;;15.70;8.15;;;-1.50;99.90;;;;;;5025184;28;20202;-83
2022/12/14 03:53:08;;;;;;;14.65;8.55;;;-1.50;99.90;;;;;;5019347;28;20213;-83
2022/12/14 03:55:48;;;;;;;16.15;8.00;;;-1.40;99.90;;;;;;5015229;28;20181;-84
2022/12/14 03:59:06;;;;;;;20.65;9.18;;;-1.40;99.90;;;;;;5007398;28;20211;-83
2022/12/14 04:01:41;;;;;;;14.88;7.70;;;-1.40;99.90;;;;;;5008226;28;20285;-84
2022/12/14 04:04:20;;;;;;;16.17;7.95;;;-1.30;99.90;;;;;;5022225;28;20569;-83
2022/12/14 04:06:52;;;;;;;14.93;8.65;;;-1.40;99.90;;;;;;5004677;28;20210;-82
2022/12/14 04:09:26;;;;;;;12.50;8.18;;;-1.40;99.90;;;;;;5004938;28;20190;-83
2022/12/14 04:20:44;;;;;;;14.52;7.70;;;-1.30;99.90;;;;;;5010400;28;20189;-83
2022/12/14 04:26:03;;;;;;;20.17;11.13;;;-1.20;99.90;;;;;;5018701;28;20174;-84
2022/12/14 04:26:07;;;;;;;12.02;7.50;;;-1.20;99.90;;;;;;5013835;28;20234;-84
2022/12/14 04:31:36;;;;;;;17.65;8.48;;;-1.30;99.90;;;;;;5008348;28;20202;-83
2022/12/14 04:34:04;;;;;;;19.95;9.73;;;-1.30;99.90;;;;;;5009641;28;20669;-84
2022/12/14 04:36:39;;;;;;;13.48;9.35;;;-1.30;99.90;;;;;;5010729;28;20229;-84
2022/12/14 04:39:08;;;;;;;10.23;6.47;;;-1.20;99.90;;;;;;5010739;28;20573;-83
2022/12/14 04:41:38;;;;;;;15.18;9.30;;;-1.30;99.90;;;;;;5019009;28;20271;-83
2022/12/14 04:44:21;;;;;;;17.30;9.50;;;-1.20;99.90;;;;;;5020096;28;20174;-83
2022/12/14 04:46:47;;;;;;;16.42;8.80;;;-1.20;99.90;;;;;;5012204;28;20257;-83
2022/12/14 04:49:22;;;;;;;16.38;10.25;;;-1.20;99.90;;;;;;5016557;28;20174;-83
2022/12/14 04:51:54;;;;;;;20.23;10.30;;;-1.20;99.90;;;;;;5016213;28;20209;-82
2022/12/14 04:54:35;;;;;;;17.50;10.05;;;-1.20;99.90;;;;;;5013387;28;20186;-82
2022/12/14 04:57:16;;;;;;;21.67;10.07;;;-1.20;99.90;;;;;;5015433;28;20194;-82
2022/12/14 04:59:42;;;;;;;15.85;9.45;;;-1.30;99.90;;;;;;5008592;28;20183;-81
2022/12/14 05:02:14;;;;;;;15.85;9.60;;;-1.30;99.90;;;;;;5026161;28;20724;-83
2022/12/14 05:04:53;;;;;;;23.25;10.18;;;-1.20;99.90;;;;;;5007371;28;20526;-83
2022/12/14 05:07:30;;;;;;;16.20;8.18;;;-1.20;99.90;;;;;;5010548;28;20545;-83
2022/12/14 05:10:11;;;;;;;17.88;9.40;;;-1.20;99.90;;;;;;5017244;28;20205;-81
2022/12/14 05:12:50;;;;;;;24.23;10.77;;;-1.20;99.90;;;;;;5005021;28;20178;-81
2022/12/14 05:15:23;;;;;;;16.17;9.52;;;-1.20;99.90;;;;;;5024604;28;20270;-81
2022/12/14 05:17:50;;;;;;;19.70;9.18;;;-1.20;99.90;;;;;;5011365;28;20614;-81
2022/12/14 05:20:22;;;;;;;19.75;9.43;;;-1.10;99.90;;;;;;4998725;28;20190;-81
2022/12/14 05:22:48;;;;;;;15.55;7.90;;;-1.10;99.90;;;;;;5003201;28;20191;-82
2022/12/14 05:25:14;;;;;;;21.13;11.27;;;-1.10;99.90;;;;;;5002922;28;20234;-81
2022/12/14 05:27:40;;;;;;;20.30;10.37;;;-1.20;99.90;;;;;;4999421;28;20234;-80
2022/12/14 05:30:06;;;;;;;21.77;11.10;;;-1.10;99.90;;;;;;4995229;28;20207;-80
2022/12/14 05:32:32;;;;;;;22.90;11.77;;;-1.10;99.90;;;;;;5000481;28;20171;-81
2022/12/14 05:34:57;;;;;;;29.03;14.70;;;-1.10;99.90;;;;;;5002032;28;20171;-81
2022/12/14 05:37:23;;;;;;;24.97;12.97;;;-1.10;99.90;;;;;;4994257;28;20202;-81
2022/12/14 05:39:49;;;;;;;25.67;12.60;;;-1.10;99.90;;;;;;5001538;28;20582;-81
2022/12/14 05:42:14;;;;;;;25.33;11.83;;;-1.00;99.90;;;;;;5001720;28;20183;-81
2022/12/14 05:44:40;;;;;;;21.10;11.50;;;-0.90;99.90;;;;;;4997578;28;20185;-81
2022/12/14 05:47:05;;;;;;;17.03;10.30;;;-1.00;99.90;;;;;;5006772;28;20207;-81
2022/12/14 05:49:31;;;;;;;23.57;12.67;;;-0.90;99.90;;;;;;5015058;28;20639;-82
2022/12/14 05:51:56;;;;;;;21.37;10.50;;;-1.00;99.90;;;;;;4997557;28;20182;-81
2022/12/14 05:54:22;;;;;;;19.07;10.90;;;-1.00;99.90;;;;;;5002832;28;20211;-81
2022/12/14 05:56:47;;;;;;;21.20;11.30;;;-1.10;99.90;;;;;;5000632;28;20258;-81
2022/12/14 05:59:14;;;;;;;20.97;12.10;;;-1.10;99.90;;;;;;4998391;28;20206;-81
2022/12/14 06:01:44;;;;;;;23.10;12.25;;;-1.20;99.90;;;;;;4999609;28;20604;-82
2022/12/14 06:04:11;;;;;;;26.23;13.48;;;-1.20;99.90;;;;;;4998060;28;20240;-81
2022/12/14 06:06:37;;;;;;;26.70;15.35;;;-1.30;99.90;;;;;;4998251;28;20205;-82
2022/12/14 06:09:06;;;;;;;26.33;14.17;;;-1.30;99.90;;;;;;5007247;28;20261;-82
2022/12/14 06:11:31;;;;;;;27.13;12.70;;;-1.30;99.90;;;;;;5008556;28;20598;-81
2022/12/14 06:13:57;;;;;;;25.20;12.93;;;-1.30;99.90;;;;;;5010053;28;20175;-82
2022/12/14 06:16:24;;;;;;;24.80;13.27;;;-4.50;99.90;;;;;;5021673;23;20458;-83
2022/12/14 06:18:52;;;;;;;26.55;11.57;;;-1.30;99.90;;;;;;4964209;28;20211;-84
2022/12/14 06:21:20;;;;;;;27.13;13.48;;;-1.30;99.90;;;;;;4966736;28;20215;-84
2022/12/14 06:23:46;;;;;;;22.50;12.27;;;-1.30;99.90;;;;;;4961303;28;20636;-84
2022/12/14 06:26:13;;;;;;;27.40;16.60;;;-1.30;99.90;;;;;;4966301;28;20231;-81
2022/12/14 06:28:38;;;;;;;22.00;13.13;;;-1.50;99.90;;;;;;4955296;28;20858;-83
2022/12/14 06:31:05;;;;;;;23.90;11.23;;;;;;;;;;4963791;28;20203;-83
2022/12/14 06:33:32;;;;;;;27.10;12.38;;;-1.60;99.90;;;;;;4962337;28;20187;-86
2022/12/14 06:35:58;;;;;;;29.17;14.93;;;-1.60;99.90;;;;;;4963466;28;20202;-83
2022/12/14 06:38:25;;;;;;;32.03;14.80;;;-1.60;99.90;;;;;;4960165;28;20183;-84
2022/12/14 06:40:51;;;;;;;28.25;12.50;;;-1.60;99.90;;;;;;4995323;28;20194;-82
2022/12/14 06:43:16;;;;;;;20.30;12.30;;;-1.60;99.90;;;;;;4963099;28;20188;-83
2022/12/14 06:45:42;;;;;;;24.70;14.97;;;;;;;;;;4944215;28;20204;-84
2022/12/14 06:48:08;;;;;;;14.07;9.55;;;-1.70;99.90;;;;;;4962101;28;20185;-85
2022/12/14 06:50:34;;;;;;;31.17;14.07;;;;;;;;;;4978645;28;20214;-84
2022/12/14 06:53:00;;;;;;;30.35;14.05;;;-1.60;99.90;;;;;;4952188;28;20219;-83
2022/12/14 06:55:26;;;;;;;28.05;16.05;;;;;;;;;;4978539;28;20206;-84
2022/12/14 06:57:53;;;;;;;30.30;16.83;;;-1.60;99.90;;;;;;4959746;28;20211;-82
2022/12/14 07:00:21;;;;;;;29.10;15.50;;;-1.50;99.90;;;;;;4960706;28;20187;-83
2022/12/14 07:02:47;;;;;;;21.55;12.27;;;-1.50;99.90;;;;;;4963978;28;20191;-84
2022/12/14 07:05:14;;;;;;;26.65;13.00;;;-1.60;99.90;;;;;;4965233;28;20169;-81
2022/12/14 07:07:40;;;;;;;29.23;14.85;;;-1.60;99.90;;;;;;4966314;28;20331;-81
2022/12/14 07:10:07;;;;;;;32.72;15.02;;;-1.60;99.90;;;;;;4961518;28;20203;-84
2022/12/14 07:12:33;;;;;;;16.50;9.65;;;;;;;;;;4948718;28;20180;-82
2022/12/14 07:14:59;;;;;;;38.75;16.60;;;-1.70;99.90;;;;;;4954552;28;20188;-84
2022/12/14 07:17:25;;;;;;;28.83;15.50;;;;;;;;;;4982350;28;20226;-82
2022/12/14 07:19:52;;;;;;;21.80;13.00;;;-1.60;99.90;;;;;;4967760;28;20192;-84
2022/12/14 07:22:18;;;;;;;17.98;10.18;;;-1.70;99.90;;;;;;4969237;28;20937;-85
2022/12/14 07:24:45;;;;;;;25.20;13.75;;;;;;;;;;4968661;28;20176;-84
2022/12/14 07:27:10;;;;;;;28.65;12.88;;;-1.70;99.90;;;;;;4969234;28;20198;-86
2022/12/14 07:29:36;;;;;;;25.43;12.13;;;;;;;;;;4969485;28;20830;-84
2022/12/14 07:32:03;;;;;;;23.38;13.60;;;-1.70;99.90;;;;;;4980350;28;20461;-84
2022/12/14 07:34:28;;;;;;;30.35;15.10;;;-1.70;99.90;;;;;;4983029;28;20207;-84
2022/12/14 07:36:54;;;;;;;29.17;13.50;;;-1.60;99.90;;;;;;4963479;28;20226;-84
2022/12/14 07:39:20;;;;;;;30.08;15.77;;;-1.60;99.90;;;;;;4968514;28;20179;-81
2022/12/14 07:41:47;;;;;;;36.45;15.98;;;-1.60;99.90;;;;;;4966070;28;20234;-83
2022/12/14 07:44:13;;;;;;;31.10;16.55;;;-1.50;99.90;;;;;;4966950;28;20252;-86
2022/12/14 07:46:39;;;;;;;30.67;16.73;;;-1.50;99.90;;;;;;4981371;28;20298;-83
2022/12/14 07:49:05;;;;;;;30.80;16.88;;;;;;;;;;4968165;28;20450;-81
2022/12/14 07:51:37;;;;;;;30.65;15.95;;;-1.40;99.90;;;;;;4980855;28;20199;-84
2022/12/14 07:54:04;;;;;;;37.63;18.23;;;-1.40;99.90;;;;;;4964687;28;20996;-83
2022/12/14 07:56:33;;;;;;;43.30;18.20;;;-1.40;99.90;;;;;;4961588;28;20199;-81
2022/12/14 07:59:00;;;;;;;29.95;13.27;;;-1.40;99.90;;;;;;4957093;28;20212;-82
2022/12/14 08:01:28;;;;;;;33.50;19.35;;;-1.40;99.90;;;;;;4952707;28;20219;-85
2022/12/14 08:04:02;;;;;;;36.75;17.48;;;-0.70;99.90;;;;;;4962690;28;20191;-86
2022/12/14 08:06:29;;;;;;;38.15;18.13;;;-0.90;99.90;;;;;;4943654;28;20195;-83
2022/12/14 08:08:56;;;;;;;29.73;17.48;;;-1.20;99.90;;;;;;4957695;28;20263;-81
2022/12/14 08:11:22;;;;;;;37.85;18.33;;;-1.00;99.90;;;;;;4966577;28;20223;-85
2022/12/14 08:13:56;;;;;;;34.92;17.35;;;-1.00;99.90;;;;;;4956251;28;20191;-84
2022/12/14 08:16:22;;;;;;;42.83;19.83;;;-1.00;99.90;;;;;;4954731;28;20303;-81
2022/12/14 08:18:47;;;;;;;38.55;20.20;;;-0.90;99.90;;;;;;4969319;28;20188;-84
2022/12/14 08:21:14;;;;;;;35.87;18.97;;;-0.80;99.90;;;;;;4956974;28;20204;-82
2022/12/14 08:23:40;;;;;;;26.45;15.38;;;-0.80;99.90;;;;;;4975104;28;20187;-80
2022/12/14 08:26:07;;;;;;;46.70;21.13;;;-0.70;99.90;;;;;;4944675;28;20290;-84
2022/12/14 08:28:34;;;;;;;47.42;21.70;;;-0.60;99.90;;;;;;4960900;28;20446;-81
2022/12/14 08:31:11;;;;;;;34.40;20.02;;;-0.50;99.90;;;;;;4964877;28;20211;-84
2022/12/14 08:33:38;;;;;;;42.22;21.00;;;-0.50;99.90;;;;;;4958107;28;20183;-82
2022/12/14 08:36:12;;;;;;;38.50;19.08;;;-0.40;99.90;;;;;;4958368;28;20199;-85
2022/12/14 08:38:40;;;;;;;26.40;15.10;;;-0.40;99.90;;;;;;4965078;28;20195;-81
2022/12/14 08:41:08;;;;;;;35.00;18.80;;;-0.50;99.90;;;;;;4975500;28;20191;-84
2022/12/14 08:43:34;;;;;;;37.97;19.05;;;-0.50;99.90;;;;;;4966998;28;20246;-80
2022/12/14 08:46:00;;;;;;;33.43;19.47;;;-0.60;99.90;;;;;;4958650;28;20207;-87
2022/12/14 08:48:26;;;;;;;33.15;17.60;;;-0.60;99.90;;;;;;4960053;28;20440;-84
2022/12/14 08:50:52;;;;;;;37.50;19.52;;;-0.60;99.90;;;;;;4966703;28;20223;-85
2022/12/14 08:53:18;;;;;;;45.10;21.27;;;-0.60;99.90;;;;;;4957202;28;20188;-86
2022/12/14 08:55:44;;;;;;;37.33;19.10;;;-0.60;99.90;;;;;;4944482;28;20407;-85
2022/12/14 08:58:10;;;;;;;52.88;23.17;;;;;;;;;;4963523;28;20282;-81
2022/12/14 09:00:38;;;;;;;47.97;20.20;;;-0.70;99.90;;;;;;4957965;28;20657;-86
2022/12/14 09:03:05;;;;;;;33.38;19.80;;;-0.90;99.90;;;;;;4958730;28;21033;-85
2022/12/14 09:05:30;;;;;;;49.08;28.85;;;-0.80;99.90;;;;;;4943255;28;20212;-80
2022/12/14 09:07:56;;;;;;;36.93;20.13;;;-0.80;99.90;;;;;;4956458;28;20219;-82
2022/12/14 09:10:21;;;;;;;37.43;18.33;;;-0.90;99.90;;;;;;4956019;28;20253;-83
2022/12/14 09:12:47;;;;;;;36.67;19.27;;;-0.90;99.90;;;;;;4955150;28;20188;-83
2022/12/14 09:15:12;;;;;;;30.23;18.40;;;-0.80;99.90;;;;;;4955688;28;20176;-83
2022/12/14 09:17:38;;;;;;;37.87;20.53;;;-0.70;99.90;;;;;;4955346;28;20208;-83
2022/12/14 09:20:05;;;;;;;40.67;20.70;;;-0.70;99.90;;;;;;4955043;28;20646;-83
2022/12/14 09:22:31;;;;;;;47.72;19.50;;;-0.70;99.90;;;;;;4957807;28;20183;-84
2022/12/14 09:24:56;;;;;;;36.40;22.13;;;-0.70;99.90;;;;;;4959561;28;21312;-79
2022/12/14 09:27:22;;;;;;;37.20;19.73;;;;;;;;;;4973332;28;20466;-85
2022/12/14 09:29:48;;;;;;;40.92;19.80;;;-0.50;99.90;;;;;;4950785;28;20642;-87
2022/12/14 09:32:14;;;;;;;38.60;20.67;;;;;;;;;;4957931;28;20234;-83
2022/12/14 09:34:40;;;;;;;45.00;22.17;;;-0.50;99.90;;;;;;4948583;28;20181;-83
2022/12/14 09:37:06;;;;;;;38.07;20.97;;;-0.50;99.90;;;;;;4973115;28;20529;-83
2022/12/14 09:39:32;;;;;;;40.17;18.77;;;-0.50;99.90;;;;;;4965282;28;20199;-80
2022/12/14 09:42:21;;;;;;;39.13;24.08;;;-0.50;99.90;;;;;;4974920;28;20446;-83
2022/12/14 09:45:10;;;;;;;43.47;22.48;;;-0.40;99.90;;;;;;4967285;28;20227;-83
2022/12/14 09:48:02;;;;;;;36.28;20.02;;;-0.40;99.90;;;;;;4968168;28;20258;-83
2022/12/14 09:50:29;;;;;;;40.30;20.98;;;-0.40;99.90;;;;;;4960601;28;21573;-84
2022/12/14 09:53:04;;;;;;;44.25;21.95;;;-0.40;99.90;;;;;;4965306;28;20184;-83
2022/12/14 09:55:45;;;;;;;44.90;21.98;;;-0.40;99.90;;;;;;4965535;28;20339;-82
2022/12/14 09:58:19;;;;;;;37.50;20.65;;;-0.40;99.90;;;;;;4963494;28;20203;-81
2022/12/14 10:01:12;;;;;;;41.42;20.17;;;-0.40;99.90;;;;;;4968164;28;20233;-80
2022/12/14 10:04:05;;;;;;;41.22;20.50;;;-0.40;99.90;;;;;;4966707;28;20223;-82
2022/12/14 10:06:59;;;;;;;32.10;19.27;;;-0.60;99.90;;;;;;4986855;28;20179;-81
2022/12/14 10:09:38;;;;;;;38.22;21.33;;;-0.70;99.90;;;;;;4949017;28;20247;-83
2022/12/14 10:12:29;;;;;;;42.03;20.48;;;-0.60;99.90;;;;;;4980472;28;20200;-87
2022/12/14 10:15:17;;;;;;;38.08;18.77;;;-0.60;99.90;;;;;;4966425;28;20180;-83
2022/12/14 10:17:52;;;;;;;41.83;19.02;;;-0.50;99.90;;;;;;4980449;28;20204;-85
2022/12/14 10:20:47;;;;;;;46.97;23.25;;;-0.50;99.90;;;;;;4967078;28;20244;-84
2022/12/14 10:23:15;;;;;;;41.00;21.98;;;-0.50;99.90;;;;;;4966543;28;20183;-85
2022/12/14 10:25:45;;;;;;;40.08;21.95;;;-0.40;99.90;;;;;;4966246;28;20220;-84
2022/12/14 10:28:17;;;;;;;40.83;20.85;;;-0.40;99.90;;;;;;4966774;28;20187;-84
2022/12/14 10:30:43;;;;;;;38.88;20.70;;;;;;;;;;4958877;28;20211;-83
2022/12/14 10:33:28;;;;;;;50.92;22.15;;;-0.30;99.90;;;;;;4964454;28;20180;-86
2022/12/14 10:36:08;;;;;;;37.85;21.60;;;-0.30;99.90;;;;;;4969645;28;20241;-86
2022/12/14 10:38:51;;;;;;;44.70;21.90;;;-0.20;99.90;;;;;;4981997;28;20237;-83
2022/12/14 10:41:32;;;;;;;45.03;22.95;;;-0.20;99.90;;;;;;4977162;28;20196;-78
2022/12/14 10:44:20;;;;;;;51.40;23.00;;;0.00;99.90;;;;;;4968957;28;20194;-85
2022/12/14 10:46:56;;;;;;;48.42;23.05;;;0.00;99.90;;;;;;4965334;28;20689;-86
2022/12/14 10:49:38;;;;;;;44.38;23.02;;;0.10;99.90;;;;;;4964883;28;20230;-84
2022/12/14 10:52:13;;;;;;;47.30;23.92;;;0.20;99.90;;;;;;4964268;28;20199;-84
2022/12/14 10:55:00;;;;;;;43.70;22.95;;;0.60;99.90;;;;;;4966646;28;20256;-84
2022/12/14 10:57:26;;;;;;;42.13;22.35;;;-0.20;99.90;;;;;;4966921;28;20568;-84
2022/12/14 10:59:53;;;;;;;43.97;22.48;;;-0.40;99.90;;;;;;4963596;28;20192;-84
2022/12/14 11:02:27;;;;;;;45.40;21.90;;;-0.30;99.90;;;;;;4963841;28;20275;-84
2022/12/14 11:04:52;;;;;;;52.72;23.30;;;-0.10;99.90;;;;;;4965631;28;20178;-85
2022/12/14 11:07:21;;;;;;;51.20;24.30;;;0.00;99.90;;;;;;4948535;28;20200;-81
2022/12/14 11:09:47;;;;;;;48.60;25.17;;;-0.10;99.90;;;;;;4966730;28;20251;-82
2022/12/14 11:12:13;;;;;;;40.07;21.83;;;;;;;;;;4959411;28;20183;-81
2022/12/14 11:14:50;;;;;;;47.23;22.67;;;0.00;99.90;;;;;;4951409;28;20176;-87
2022/12/14 11:17:58;;;;;;;44.33;23.60;;;-0.10;99.90;;;;;;4965477;28;20528;-84
2022/12/14 11:20:26;;;;;;;48.50;24.35;;;-0.20;99.90;;;;;;4936970;28;20203;-84
2022/12/14 11:23:03;;;;;;;53.58;26.75;;;0.20;99.90;;;;;;4947794;28;20194;-81
2022/12/14 11:25:41;;;;;;;62.13;28.70;;;0.30;99.90;;;;;;4965332;28;20191;-80
2022/12/14 11:28:31;;;;;;;43.95;26.25;;;0.30;99.90;;;;;;4970388;28;20184;-82
2022/12/14 11:31:10;;;;;;;52.38;25.35;;;0.40;99.90;;;;;;4968745;28;20199;-81
2022/12/14 11:33:50;;;;;;;46.15;25.75;;;0.70;99.90;;;;;;4983824;28;20178;-83
2022/12/14 11:36:34;;;;;;;49.78;21.80;;;0.60;99.90;;;;;;4967182;28;20230;-83
2022/12/14 11:39:11;;;;;;;45.33;21.63;;;0.60;99.90;;;;;;4982535;28;20208;-82
2022/12/14 11:41:42;;;;;;;45.58;21.63;;;0.40;99.90;;;;;;4964189;28;20186;-83
2022/12/14 11:44:14;;;;;;;49.42;24.25;;;0.30;99.90;;;;;;4965285;28;20190;-82
2022/12/14 11:46:51;;;;;;;46.45;23.10;;;0.60;99.90;;;;;;4955249;28;20199;-85
2022/12/14 11:49:28;;;;;;;48.63;23.85;;;0.80;99.90;;;;;;4982419;28;20184;-87
2022/12/14 11:51:54;;;;;;;44.47;22.92;;;0.70;99.90;;;;;;4956533;28;20207;-85
2022/12/14 11:54:20;;;;;;;50.13;24.07;;;;;;;;;;4965926;28;20277;-84
2022/12/14 11:56:49;;;;;;;43.27;23.70;;;0.70;99.90;;;;;;4976533;28;20216;-81
2022/12/14 11:59:16;;;;;;;45.40;23.15;;;0.70;99.90;;;;;;4976176;28;20439;-82
2022/12/14 12:01:42;;;;;;;46.30;25.33;;;0.60;99.90;;;;;;4971276;28;20175;-82
2022/12/14 12:04:13;;;;;;;43.50;22.77;;;0.80;99.90;;;;;;4970055;28;20191;-80
2022/12/14 12:06:40;;;;;;;37.47;22.48;;;;;;;;;;4971703;28;20254;-86
2022/12/14 12:09:25;;;;;;;40.75;22.17;;;0.60;99.90;;;;;;4957310;28;20180;-83
2022/12/14 12:11:51;;;;;;;38.45;20.05;;;0.40;99.90;;;;;;4954973;28;20298;-85
2022/12/14 12:14:33;;;;;;;45.47;23.50;;;0.40;99.90;;;;;;4971482;28;20275;-86
2022/12/14 12:16:59;;;;;;;45.90;24.05;;;0.30;99.90;;;;;;4966020;28;20203;-81
2022/12/14 12:19:33;;;;;;;51.23;24.60;;;0.20;99.90;;;;;;4974748;28;20184;-84
2022/12/14 12:22:01;;;;;;;44.15;23.20;;;0.40;99.90;;;;;;4973953;28;20545;-82
2022/12/14 12:24:34;;;;;;;45.63;23.13;;;0.50;99.90;;;;;;4963568;28;20176;-83
2022/12/14 12:27:12;;;;;;;49.95;23.15;;;0.40;99.90;;;;;;4970525;28;20736;-84
2022/12/14 12:29:44;;;;;;;43.08;20.85;;;0.40;99.90;;;;;;4970056;28;20190;-87
2022/12/14 12:32:44;;;;;;;44.33;22.95;;;0.20;99.90;;;;;;4966488;28;20215;-84
2022/12/14 12:35:45;;;;;;;50.03;24.13;;;0.20;99.90;;;;;;4967465;28;20279;-82
2022/12/14 12:38:13;;;;;;;39.30;20.00;;;0.20;99.90;;;;;;4946692;28;20187;-83
2022/12/14 12:41:11;;;;;;;42.40;21.35;;;0.10;99.90;;;;;;4968457;28;20184;-85
2022/12/14 12:43:57;;;;;;;47.60;23.73;;;-0.10;99.90;;;;;;4984292;28;20176;-81
2022/12/14 12:46:29;;;;;;;46.15;21.52;;;0.00;99.90;;;;;;4968772;28;20200;-81
2022/12/14 12:49:04;;;;;;;43.80;22.73;;;-0.20;99.90;;;;;;4966216;28;20247;-81
2022/12/14 12:51:43;;;;;;;45.17;22.02;;;-0.30;99.90;;;;;;4948831;28;20204;-81
2022/12/14 12:54:42;;;;;;;47.10;22.90;;;-0.20;99.90;;;;;;4969441;28;20302;-83
2022/12/14 12:57:11;;;;;;;36.70;20.60;;;-0.30;99.90;;;;;;4957940;28;20223;-79
2022/12/14 12:59:46;;;;;;;39.83;21.48;;;-0.40;99.90;;;;;;4983825;28;20728;-85
2022/12/14 13:02:32;;;;;;;38.40;22.10;;;-0.60;99.90;;;;;;4967246;28;20187;-84
2022/12/14 13:05:01;;;;;;;38.22;21.60;;;-0.60;99.90;;;;;;4950239;28;20219;-82
2022/12/14 13:07:47;;;;;;;42.75;23.30;;;-0.50;99.90;;;;;;4963364;28;20222;-83
2022/12/14 13:10:29;;;;;;;41.03;22.92;;;-0.50;99.90;;;;;;4968438;28;20204;-86
2022/12/14 13:12:54;;;;;;;47.13;22.27;;;;;;;;;;4975495;28;20179;-82
2022/12/14 13:15:43;;;;;;;45.97;24.00;;;-0.30;99.90;;;;;;4979706;28;20781;-84
2022/12/14 13:18:29;;;;;;;42.15;20.58;;;-0.30;99.90;;;;;;4948871;28;20930;-86